Time;durP1;ratioP1;P1;durP2;ratioP2;P2;SDS_P1;SDS_P2;PMS_P1;PMS_P2;Temp;Humidity;BMP_temperature;BMP_pressure;BME280_temperature;BME280_humidity;BME280_pressure;Samples;Min_cycle;Max_cycle;Signal;HPM_P1;HPM_P2
2021/09/13 00:01:51;;;;;;;12.13;10.90;;;;;;;;;;5072739;28;20024;-77
2021/09/13 00:04:17;;;;;;;11.07;10.10;;;;;;;;;;5072801;28;20025;-76
2021/09/13 00:06:45;;;;;;;12.52;11.43;;;;;;;;;;5072987;28;20032;-77
2021/09/13 00:09:11;;;;;;;11.80;10.55;;;;;;;;;;5073165;28;20020;-77
2021/09/13 00:11:37;;;;;;;13.55;11.38;;;;;;;;;;5072941;28;20025;-77
2021/09/13 00:14:03;;;;;;;11.75;10.68;;;;;;;;;;5072443;28;20351;-77
2021/09/13 00:16:29;;;;;;;13.43;11.05;;;;;;;;;;5072925;28;20028;-77
2021/09/13 00:18:55;;;;;;;12.18;10.52;;;;;;;;;;5072365;28;20382;-76
2021/09/13 00:21:21;;;;;;;11.07;9.80;;;;;;;;;;5072921;28;20032;-76
2021/09/13 00:23:47;;;;;;;10.32;9.43;;;;;;;;;;5072550;28;20078;-77
2021/09/13 00:26:13;;;;;;;11.80;10.70;;;;;;;;;;5072462;28;20413;-78
2021/09/13 00:28:39;;;;;;;12.00;11.00;;;;;;;;;;5072818;28;20025;-79
2021/09/13 00:31:05;;;;;;;10.25;9.32;;;;;;;;;;5072741;28;20059;-79
2021/09/13 00:33:31;;;;;;;11.45;10.35;;;;;;;;;;5073339;28;20025;-79
2021/09/13 00:35:57;;;;;;;10.98;9.88;;;;;;;;;;5075768;28;20032;-79
2021/09/13 00:38:23;;;;;;;11.65;10.65;;;;;;;;;;5076809;28;20028;-78
2021/09/13 00:40:50;;;;;;;10.95;9.88;;;;;;;;;;5076730;28;20416;-77
2021/09/13 00:43:16;;;;;;;10.98;9.70;;;;;;;;;;5076390;28;20122;-76
2021/09/13 00:45:42;;;;;;;10.90;9.80;;;;;;;;;;5076176;28;20048;-77
2021/09/13 00:48:08;;;;;;;10.52;9.65;;;;;;;;;;5075809;28;20108;-76
2021/09/13 00:50:34;;;;;;;11.18;10.05;;;;;;;;;;5076311;28;20025;-77
2021/09/13 00:53:00;;;;;;;9.30;8.52;;;;;;;;;;5076510;28;20103;-76
2021/09/13 00:55:26;;;;;;;10.63;9.63;;;;;;;;;;5075571;28;20482;-76
2021/09/13 00:57:53;;;;;;;10.02;9.13;;;;;;;;;;5075805;28;20035;-77
2021/09/13 01:00:19;;;;;;;10.93;9.93;;;;;;;;;;5076188;28;20081;-77
2021/09/13 01:02:45;;;;;;;10.32;9.43;;;;;;;;;;5075544;28;20474;-77
2021/09/13 01:05:11;;;;;;;11.15;10.15;;;;;;;;;;5075754;28;20166;-77
2021/09/13 01:07:37;;;;;;;11.35;10.35;;;;;;;;;;5075694;28;20024;-78
2021/09/13 01:10:04;;;;;;;9.88;9.05;;;;;;;;;;5075582;28;20478;-78
2021/09/13 01:12:30;;;;;;;9.68;8.77;;;;;;;;;;5075731;28;20036;-77
2021/09/13 01:14:56;;;;;;;10.50;9.55;;;;;;;;;;5075838;28;20104;-78
2021/09/13 01:17:22;;;;;;;10.02;9.23;;;;;;;;;;5075117;28;20071;-77
2021/09/13 01:19:48;;;;;;;9.27;8.48;;;;;;;;;;5075245;28;20162;-77
2021/09/13 01:22:14;;;;;;;11.45;10.45;;;;;;;;;;5076067;28;20031;-78
2021/09/13 01:24:40;;;;;;;10.10;9.20;;;;;;;;;;5075304;28;20488;-79
2021/09/13 01:27:07;;;;;;;9.55;8.73;;;;;;;;;;5075313;28;20119;-77
2021/09/13 01:29:33;;;;;;;10.13;9.18;;;;;;;;;;5075661;28;20028;-77
2021/09/13 01:32:00;;;;;;;11.05;9.95;;;;;;;;;;5074754;28;20024;-77
2021/09/13 01:34:26;;;;;;;11.13;10.13;;;;;;;;;;5075199;28;20024;-78
2021/09/13 01:36:52;;;;;;;10.23;9.32;;;;;;;;;;5075581;28;20055;-77
2021/09/13 01:39:18;;;;;;;11.55;10.45;;;;;;;;;;5075406;28;20465;-78
2021/09/13 01:41:44;;;;;;;10.50;9.57;;;;;;;;;;5074733;28;20042;-77
2021/09/13 01:44:11;;;;;;;9.80;8.90;;;;;;;;;;5075396;28;20036;-78
2021/09/13 01:46:37;;;;;;;9.88;8.98;;;;;;;;;;5074284;28;20032;-77
2021/09/13 01:49:04;;;;;;;9.57;8.77;;;;;;;;;;5074930;28;20032;-77
2021/09/13 01:51:30;;;;;;;9.68;8.82;;;;;;;;;;5075006;28;20386;-76
2021/09/13 01:53:57;;;;;;;9.65;8.85;;;;;;;;;;5074667;28;20020;-76
2021/09/13 01:56:23;;;;;;;9.25;8.45;;;;;;;;;;5074708;28;20052;-76
2021/09/13 01:58:49;;;;;;;8.15;7.45;;;;;;;;;;5074606;28;20054;-76
2021/09/13 02:01:15;;;;;;;10.32;8.55;;;;;;;;;;5074563;28;20075;-77
2021/09/13 02:03:41;;;;;;;8.90;8.20;;;;;;;;;;5074744;28;20025;-77
2021/09/13 02:06:07;;;;;;;10.60;9.73;;;;;;;;;;5074473;28;20024;-77
2021/09/13 02:08:34;;;;;;;10.10;9.10;;;;;;;;;;5074718;28;20079;-77
2021/09/13 02:11:00;;;;;;;9.57;8.52;;;;;;;;;;5075028;28;20359;-77
2021/09/13 02:13:26;;;;;;;9.68;8.77;;;;;;;;;;5074324;28;20077;-76
2021/09/13 02:15:52;;;;;;;9.18;8.40;;;;;;;;;;5074103;28;20470;-77
2021/09/13 02:18:18;;;;;;;9.40;8.60;;;;;;;;;;5074083;28;20044;-77
2021/09/13 02:20:45;;;;;;;9.30;8.40;;;;;;;;;;5074529;28;20501;-76
2021/09/13 02:23:11;;;;;;;9.55;8.65;;;;;;;;;;5074581;28;20020;-76
2021/09/13 02:25:37;;;;;;;10.63;8.38;;;;;;;;;;5074423;28;20040;-77
2021/09/13 02:28:03;;;;;;;8.57;7.78;;;;;;;;;;5073968;28;20162;-77
2021/09/13 02:30:29;;;;;;;9.35;8.50;;;;;;;;;;5074038;28;20043;-78
2021/09/13 02:32:55;;;;;;;8.55;7.85;;;;;;;;;;5074155;28;20031;-76
2021/09/13 02:35:21;;;;;;;10.13;9.02;;;;;;;;;;5074243;28;20378;-76
2021/09/13 02:37:47;;;;;;;9.25;8.35;;;;;;;;;;5073847;28;20030;-76
2021/09/13 02:40:13;;;;;;;8.25;7.55;;;;;;;;;;5073891;28;20761;-76
2021/09/13 02:42:39;;;;;;;10.35;8.25;;;;;;;;;;5073980;28;20021;-76
2021/09/13 02:45:06;;;;;;;8.65;7.90;;;;;;;;;;5073789;28;20032;-76
2021/09/13 02:47:32;;;;;;;9.23;8.35;;;;;;;;;;5073718;28;20021;-76
2021/09/13 02:49:59;;;;;;;8.77;8.07;;;;;;;;;;5073612;28;20025;-78
2021/09/13 02:52:25;;;;;;;8.82;7.93;;;;;;;;;;5074316;28;20352;-78
2021/09/13 02:54:51;;;;;;;7.45;6.88;;;;;;;;;;5073725;28;20052;-77
2021/09/13 02:57:17;;;;;;;9.48;8.27;;;;;;;;;;5073918;28;20024;-77
2021/09/13 02:59:44;;;;;;;8.52;7.82;;;;;;;;;;5073749;28;20470;-78
2021/09/13 03:02:10;;;;;;;7.70;7.07;;;;;;;;;;5073268;28;20494;-78
2021/09/13 03:04:36;;;;;;;8.10;7.40;;;;;;;;;;5073889;28;20116;-78
2021/09/13 03:07:03;;;;;;;9.25;7.55;;;;;;;;;;5073684;28;20025;-78
2021/09/13 03:09:29;;;;;;;7.50;6.80;;;;;;;;;;5073850;28;20451;-79
2021/09/13 03:11:55;;;;;;;8.52;7.75;;;;;;;;;;5073318;28;20099;-79
2021/09/13 03:14:21;;;;;;;8.88;8.07;;;;;;;;;;5073420;28;20024;-79
2021/09/13 03:16:47;;;;;;;8.65;7.35;;;;;;;;;;5073479;28;20050;-79
2021/09/13 03:19:13;;;;;;;8.13;7.43;;;;;;;;;;5073157;28;20132;-79
2021/09/13 03:21:39;;;;;;;8.05;7.25;;;;;;;;;;5073326;28;20366;-79
2021/09/13 03:24:06;;;;;;;9.48;8.57;;;;;;;;;;5073351;28;20029;-79
2021/09/13 03:26:32;;;;;;;17.40;10.75;;;;;;;;;;5073735;28;20048;-79
2021/09/13 03:28:58;;;;;;;15.18;11.10;;;;;;;;;;5073484;28;20035;-79
2021/09/13 03:31:24;;;;;;;19.40;11.30;;;;;;;;;;5073423;28;20351;-78
2021/09/13 03:33:50;;;;;;;18.25;10.00;;;;;;;;;;5073240;28;20021;-78
2021/09/13 03:36:16;;;;;;;19.23;11.20;;;;;;;;;;5073784;28;20033;-76
2021/09/13 03:38:42;;;;;;;14.95;10.90;;;;;;;;;;5072276;28;20039;-76
2021/09/13 03:41:08;;;;;;;13.10;10.15;;;;;;;;;;5073684;28;20381;-76
2021/09/13 03:43:34;;;;;;;14.10;9.98;;;;;;;;;;5073398;28;20051;-76
2021/09/13 03:46:00;;;;;;;11.05;9.77;;;;;;;;;;5073021;28;20025;-76
2021/09/13 03:48:26;;;;;;;11.73;9.75;;;;;;;;;;5073252;28;20478;-76
2021/09/13 03:50:52;;;;;;;13.57;10.48;;;;;;;;;;5073190;28;20024;-76
2021/09/13 03:53:18;;;;;;;15.93;10.23;;;;;;;;;;5073046;28;20424;-77
2021/09/13 03:55:44;;;;;;;12.63;9.35;;;;;;;;;;5072759;28;20072;-76
2021/09/13 03:58:11;;;;;;;12.95;9.73;;;;;;;;;;5072903;28;20087;-76
2021/09/13 04:00:37;;;;;;;10.50;9.40;;;;;;;;;;5073101;28;20478;-76
2021/09/13 04:03:05;;;;;;;10.82;9.13;;;;;;;;;;5073213;28;20025;-76
2021/09/13 04:05:31;;;;;;;10.40;9.30;;;;;;;;;;5073053;28;20107;-76
2021/09/13 04:08:08;;;;;;;10.68;8.95;;;;;;;;;;5072845;28;20069;-76
2021/09/13 04:10:48;;;;;;;9.88;8.52;;;;;;;;;;5077092;28;20116;-76
2021/09/13 04:13:14;;;;;;;10.80;8.85;;;;;;;;;;5076523;28;20143;-76
2021/09/13 04:15:40;;;;;;;10.07;9.10;;;;;;;;;;5076761;28;20043;-76
2021/09/13 04:18:06;;;;;;;9.32;8.27;;;;;;;;;;5076464;28;20032;-76
2021/09/13 04:20:32;;;;;;;11.60;9.43;;;;;;;;;;5076690;28;20486;-76
2021/09/13 04:22:58;;;;;;;9.48;8.57;;;;;;;;;;5076495;28;20048;-76
2021/09/13 04:25:24;;;;;;;13.15;9.05;;;;;;;;;;5076646;28;20032;-76
2021/09/13 04:27:50;;;;;;;9.88;8.88;;;;;;;;;;5076152;28;20020;-76
2021/09/13 04:30:16;;;;;;;10.35;9.35;;;;;;;;;;5077238;28;20038;-76
2021/09/13 04:32:42;;;;;;;8.95;7.97;;;;;;;;;;5076597;28;20058;-76
2021/09/13 04:35:08;;;;;;;9.48;8.55;;;;;;;;;;5076268;28;20493;-76
2021/09/13 04:37:35;;;;;;;10.38;9.27;;;;;;;;;;5076222;28;20039;-76
2021/09/13 04:40:01;;;;;;;12.40;8.75;;;;;;;;;;5075981;28;20041;-76
2021/09/13 04:42:27;;;;;;;10.35;9.00;;;;;;;;;;5076118;28;20020;-76
2021/09/13 04:44:54;;;;;;;9.45;8.50;;;;;;;;;;5076675;28;20025;-76
2021/09/13 04:47:20;;;;;;;8.60;7.80;;;;;;;;;;5076513;28;20016;-76
2021/09/13 04:49:46;;;;;;;10.18;8.02;;;;;;;;;;5075980;28;20107;-76
2021/09/13 04:52:12;;;;;;;11.77;8.13;;;;;;;;;;5076071;28;20039;-76
2021/09/13 04:54:38;;;;;;;8.35;7.38;;;;;;;;;;5076049;28;20048;-76
2021/09/13 04:57:04;;;;;;;9.52;8.15;;;;;;;;;;5075805;28;20025;-76
2021/09/13 04:59:30;;;;;;;9.85;8.00;;;;;;;;;;5075873;28;20040;-76
2021/09/13 05:01:56;;;;;;;8.43;7.63;;;;;;;;;;5072739;28;20024;-78
2021/09/13 05:04:22;;;;;;;8.77;7.97;;;;;;;;;;5076074;28;20540;-85
2021/09/13 05:06:48;;;;;;;8.13;7.38;;;;;;;;;;5076770;28;20024;-82
2021/09/13 05:09:14;;;;;;;8.60;7.72;;;;;;;;;;5077018;28;20351;-83
2021/09/13 05:11:42;;;;;;;8.25;7.25;;;;;;;;;;5076662;28;20028;-78
2021/09/13 05:14:08;;;;;;;8.93;8.02;;;;;;;;;;5072848;28;20055;-78
2021/09/13 05:16:35;;;;;;;8.45;7.65;;;;;;;;;;5075932;28;20434;-79
2021/09/13 05:19:02;;;;;;;7.90;7.18;;;;;;;;;;5075623;28;20039;-78
2021/09/13 05:21:28;;;;;;;8.60;6.97;;;;;;;;;;5074930;28;20028;-78
2021/09/13 05:23:54;;;;;;;8.27;7.40;;;;;;;;;;5076039;28;20494;-82
2021/09/13 05:26:20;;;;;;;12.40;7.88;;;;;;;;;;5076040;28;20021;-78
2021/09/13 05:28:46;;;;;;;7.72;6.90;;;;;;;;;;5074816;28;20016;-77
2021/09/13 05:31:12;;;;;;;7.75;7.05;;;;;;;;;;5076468;28;20021;-79
2021/09/13 05:33:38;;;;;;;8.20;7.45;;;;;;;;;;5076409;28;20025;-78
2021/09/13 05:36:05;;;;;;;7.60;6.88;;;;;;;;;;5076095;28;20129;-83
2021/09/13 05:38:33;;;;;;;8.30;7.50;;;;;;;;;;5073959;28;20102;-79
2021/09/13 05:40:59;;;;;;;9.27;6.97;;;;;;;;;;5075984;28;20033;-79
2021/09/13 05:43:26;;;;;;;7.47;6.78;;;;;;;;;;5076624;28;20025;-77
2021/09/13 05:45:53;;;;;;;8.77;7.43;;;;;;;;;;5076734;28;20036;-81
2021/09/13 05:48:19;;;;;;;7.53;6.80;;;;;;;;;;5074399;28;20032;-79
2021/09/13 05:50:46;;;;;;;8.30;7.45;;;;;;;;;;5076102;28;20089;-83
2021/09/13 05:53:12;;;;;;;7.57;6.88;;;;;;;;;;5075046;28;20039;-85
2021/09/13 05:55:43;;;;;;;7.82;7.13;;;;;;;;;;5075134;28;20436;-78
2021/09/13 05:58:10;;;;;;;7.88;7.18;;;;;;;;;;5074401;28;20028;-78
2021/09/13 06:00:36;;;;;;;8.05;7.03;;;;;;;;;;5054991;28;20121;-76
2021/09/13 06:03:03;;;;;;;11.52;7.47;;;;;;;;;;5055605;28;20025;-80
2021/09/13 06:05:29;;;;;;;7.75;7.05;;;;;;;;;;5055485;28;20017;-78
2021/09/13 06:07:55;;;;;;;6.82;6.22;;;;;;;;;;5054955;28;20079;-77
2021/09/13 06:10:22;;;;;;;11.40;6.63;;;;;;;;;;5058969;28;20063;-77
2021/09/13 06:12:48;;;;;;;7.18;6.50;;;;;;;;;;5056165;28;20056;-78
2021/09/13 06:15:14;;;;;;;6.85;6.15;;;;;;;;;;5056096;28;20040;-79
2021/09/13 06:17:41;;;;;;;7.32;6.63;;;;;;;;;;5055380;28;20031;-77
2021/09/13 06:20:07;;;;;;;6.95;6.20;;;;;;;;;;5059530;28;20124;-82
2021/09/13 06:22:33;;;;;;;10.18;7.00;;;;;;;;;;5055473;28;20028;-82
2021/09/13 06:24:59;;;;;;;7.68;7.03;;;;;;;;;;5055352;28;20474;-84
2021/09/13 06:27:25;;;;;;;7.47;6.15;;;;;;;;;;5055639;28;20124;-81
2021/09/13 06:29:51;;;;;;;6.88;6.22;;;;;;;;;;5062711;28;20389;-79
2021/09/13 06:32:17;;;;;;;9.15;7.05;;;;;;;;;;5075427;28;20017;-80
2021/09/13 06:34:43;;;;;;;9.50;7.65;;;;;;;;;;5075322;28;20465;-80
2021/09/13 06:37:09;;;;;;;9.23;6.78;;;;;;;;;;5075513;28;20036;-80
2021/09/13 06:39:36;;;;;;;8.48;7.47;;;;;;;;;;5066290;28;20410;-79
2021/09/13 06:42:02;;;;;;;8.98;7.45;;;;;;;;;;5054889;28;20029;-77
2021/09/13 06:44:29;;;;;;;10.18;8.82;;;;;;;;;;5055608;28;20036;-80
2021/09/13 06:47:05;;;;;;;8.25;7.43;;;;;;;;;;5052389;28;20021;-78
2021/09/13 06:49:31;;;;;;;7.35;6.10;;;;;;;;;;5053166;28;20463;-79
2021/09/13 06:51:57;;;;;;;9.10;6.80;;;;;;;;;;5054592;28;20023;-79
2021/09/13 06:54:23;;;;;;;6.85;6.15;;;;;;;;;;5057046;28;20021;-80
2021/09/13 06:56:49;;;;;;;7.78;6.25;;;;;;;;;;5076018;28;20108;-80
2021/09/13 06:59:16;;;;;;;9.40;7.13;;;;;;;;;;5075541;28;20032;-79
2021/09/13 07:01:42;;;;;;;6.88;6.20;;;;;;;;;;5076886;28;20028;-79
2021/09/13 07:04:08;;;;;;;7.47;6.53;;;;;;;;;;5076337;28;20374;-87
2021/09/13 07:06:34;;;;;;;9.57;6.68;;;;;;;;;;5075540;28;20088;-80
2021/09/13 07:09:00;;;;;;;8.00;6.10;;;;;;;;;;5073328;28;20436;-79
2021/09/13 07:11:26;;;;;;;10.55;6.60;;;;;;;;;;5072990;28;20028;-75
2021/09/13 07:13:52;;;;;;;7.50;6.03;;;;;;;;;;5073117;28;20021;-75
2021/09/13 07:16:20;;;;;;;12.05;6.10;;;;;;;;;;5075843;28;20348;-76
2021/09/13 07:18:47;;;;;;;6.72;6.13;;;;;;;;;;5075289;28;20051;-75
2021/09/13 07:21:13;;;;;;;8.27;6.25;;;;;;;;;;5074985;28;20033;-78
2021/09/13 07:23:39;;;;;;;6.45;5.90;;;;;;;;;;5076240;28;20028;-78
2021/09/13 07:26:05;;;;;;;8.50;6.30;;;;;;;;;;5075669;28;20423;-78
2021/09/13 07:28:31;;;;;;;5.60;5.10;;;;;;;;;;5076844;28;20016;-82
2021/09/13 07:30:57;;;;;;;6.57;6.07;;;;;;;;;;5075777;28;20401;-86
2021/09/13 07:33:23;;;;;;;6.18;5.68;;;;;;;;;;5072331;28;20029;-89
2021/09/13 07:35:49;;;;;;;7.22;5.50;;;;;;;;;;5073230;28;20513;-86
2021/09/13 07:38:16;;;;;;;8.02;6.60;;;;;;;;;;5073544;28;20033;-80
2021/09/13 07:40:42;;;;;;;26.20;7.53;;;;;;;;;;5073243;28;20486;-81
2021/09/13 07:43:09;;;;;;;7.88;6.95;;;;;;;;;;5073270;28;20029;-81
2021/09/13 07:45:35;;;;;;;7.45;6.75;;;;;;;;;;5077205;28;20032;-82
2021/09/13 07:48:01;;;;;;;7.93;7.22;;;;;;;;;;5076894;28;20420;-81
2021/09/13 07:50:27;;;;;;;8.13;7.30;;;;;;;;;;5077137;28;20021;-81
2021/09/13 07:52:53;;;;;;;8.60;7.85;;;;;;;;;;5077322;28;20066;-78
2021/09/13 07:55:19;;;;;;;9.07;8.18;;;;;;;;;;5072529;28;20048;-85
2021/09/13 07:57:46;;;;;;;7.30;6.72;;;;;;;;;;5077754;28;20078;-80
2021/09/13 08:00:14;;;;;;;6.95;6.25;;;;;;;;;;5078074;28;20455;-80
2021/09/13 08:02:40;;;;;;;7.13;6.43;;;;;;;;;;5076679;28;20024;-91
2021/09/13 08:05:06;;;;;;;7.53;6.93;;;;;;;;;;5078551;28;20138;-84
2021/09/13 08:07:32;;;;;;;11.48;8.75;;;;;;;;;;5077816;28;20035;-80
2021/09/13 08:09:58;;;;;;;9.07;8.27;;;;;;;;;;5077676;28;20024;-82
2021/09/13 08:12:24;;;;;;;16.33;6.70;;;;;;;;;;5076654;28;20428;-81
2021/09/13 08:14:50;;;;;;;11.48;10.02;;;;;;;;;;5077982;28;20025;-83
2021/09/13 08:17:20;;;;;;;11.23;10.23;;;;;;;;;;5077733;28;20374;-80
2021/09/13 08:19:46;;;;;;;13.48;9.07;;;;;;;;;;5077510;28;20032;-85
2021/09/13 08:22:12;;;;;;;8.68;7.78;;;;;;;;;;5077143;28;20024;-81
2021/09/13 08:24:39;;;;;;;8.02;7.32;;;;;;;;;;5078231;28;20062;-81
2021/09/13 08:27:06;;;;;;;12.75;11.38;;;;;;;;;;5077488;28;20358;-81
2021/09/13 08:29:32;;;;;;;14.90;13.40;;;;;;;;;;5077591;28;20040;-80
2021/09/13 08:31:59;;;;;;;12.65;11.35;;;;;;;;;;5076833;28;20032;-86
2021/09/13 08:34:26;;;;;;;15.88;12.90;;;;;;;;;;5077349;28;20043;-80
2021/09/13 08:36:52;;;;;;;14.73;12.70;;;;;;;;;;5077398;28;20024;-89
2021/09/13 08:39:18;;;;;;;13.20;10.52;;;;;;;;;;5077593;28;20047;-88
2021/09/13 08:41:44;;;;;;;14.45;13.10;;;;;;;;;;5075687;28;20497;-85
2021/09/13 08:44:12;;;;;;;11.75;10.65;;;;;;;;;;5077668;28;20029;-80
2021/09/13 08:46:47;;;;;;;15.52;9.23;;;;;;;;;;5076056;28;20087;-78
2021/09/13 08:49:48;;;;;;;11.35;10.15;;;;;;;;;;5077157;28;20028;-86
2021/09/13 08:51:59;;;;;;;21.63;14.60;;;;;;;;;;5061091;28;20029;-87
2021/09/13 08:54:29;;;;;;;11.00;10.05;;;;;;;;;;5076730;28;20394;-90
2021/09/13 08:56:59;;;;;;;12.40;11.20;;;;;;;;;;5077454;28;20025;-79
2021/09/13 08:59:26;;;;;;;17.73;15.93;;;;;;;;;;5077911;28;20064;-84
2021/09/13 09:01:52;;;;;;;21.55;13.70;;;;;;;;;;5076802;28;20032;-81
2021/09/13 09:04:19;;;;;;;12.40;11.13;;;;;;;;;;5077329;28;20031;-92
2021/09/13 09:06:47;;;;;;;10.05;9.10;;;;;;;;;;5076334;28;20028;-82
2021/09/13 09:09:14;;;;;;;9.55;8.65;;;;;;;;;;5077115;28;20025;-84
2021/09/13 09:12:00;;;;;;;11.15;9.70;;;;;;;;;;5075960;28;20024;-80
2021/09/13 09:14:31;;;;;;;10.35;9.13;;;;;;;;;;5061497;28;20017;-83
2021/09/13 09:16:58;;;;;;;10.53;9.43;;;;;;;;;;5077477;28;20081;-82
2021/09/13 09:19:24;;;;;;;10.65;9.13;;;;;;;;;;5076116;28;20486;-84
2021/09/13 09:21:50;;;;;;;10.00;9.00;;;;;;;;;;5075832;28;20035;-89
2021/09/13 09:24:16;;;;;;;12.20;11.05;;;;;;;;;;5076223;28;20021;-80
2021/09/13 09:26:42;;;;;;;12.93;11.63;;;;;;;;;;5075537;28;20017;-82
2021/09/13 09:29:08;;;;;;;12.20;10.55;;;;;;;;;;5076950;28;20029;-87
2021/09/13 09:31:42;;;;;;;10.80;9.80;;;;;;;;;;5075345;28;20033;-87
2021/09/13 09:34:12;;;;;;;13.35;10.52;;;;;;;;;;5076021;28;20343;-86
2021/09/13 09:36:39;;;;;;;11.63;10.10;;;;;;;;;;5076553;28;20082;-88
2021/09/13 09:39:12;;;;;;;12.55;10.65;;;;;;;;;;5076284;28;20063;-88
2021/09/13 09:41:42;;;;;;;16.40;10.70;;;;;;;;;;5076217;28;20347;-81
2021/09/13 09:44:09;;;;;;;13.82;10.52;;;;;;;;;;5075913;28;20025;-78
2021/09/13 09:46:38;;;;;;;11.48;10.27;;;;;;;;;;5076115;28;20086;-87
2021/09/13 09:49:05;;;;;;;15.25;9.68;;;;;;;;;;5074197;28;20039;-78
2021/09/13 09:51:32;;;;;;;10.82;8.93;;;;;;;;;;5071299;28;20020;-78
2021/09/13 09:53:59;;;;;;;16.33;14.60;;;;;;;;;;5074728;28;20469;-79
2021/09/13 09:56:26;;;;;;;27.77;24.85;;;;;;;;;;5076284;28;20485;-78
2021/09/13 09:59:04;;;;;;;33.67;20.52;;;;;;;;;;5074559;28;20534;-75
2021/09/13 10:01:32;;;;;;;22.83;15.35;;;;;;;;;;5074099;28;20031;-77
2021/09/13 10:04:11;;;;;;;18.13;16.33;;;;;;;;;;5074028;28;20027;-76
2021/09/13 10:06:37;;;;;;;39.20;25.48;;;;;;;;;;5070377;28;20035;-77
2021/09/13 10:09:03;;;;;;;23.05;19.05;;;;;;;;;;5072356;28;20033;-76
2021/09/13 10:11:29;;;;;;;29.73;20.58;;;;;;;;;;5074781;28;20032;-77
2021/09/13 10:13:55;;;;;;;27.25;21.17;;;;;;;;;;5074906;28;20347;-79
2021/09/13 10:16:21;;;;;;;32.50;20.65;;;;;;;;;;5073669;28;20028;-77
2021/09/13 10:18:48;;;;;;;24.27;20.15;;;;;;;;;;5073351;28;20528;-77
2021/09/13 10:21:14;;;;;;;28.88;20.00;;;;;;;;;;5074512;28;20028;-77
2021/09/13 10:23:40;;;;;;;28.65;21.58;;;;;;;;;;5071488;28;20024;-76
2021/09/13 10:26:06;;;;;;;23.05;16.95;;;;;;;;;;5074799;28;20028;-78
2021/09/13 10:28:32;;;;;;;31.27;19.83;;;;;;;;;;5074143;28;20036;-78
2021/09/13 10:30:58;;;;;;;19.10;16.85;;;;;;;;;;5071019;28;20055;-77
2021/09/13 10:33:24;;;;;;;31.05;15.73;;;;;;;;;;5073036;28;20064;-80
2021/09/13 10:35:52;;;;;;;20.45;16.35;;;;;;;;;;5074104;28;20378;-81
2021/09/13 10:38:21;;;;;;;18.25;16.15;;;;;;;;;;5075123;28;20024;-79
2021/09/13 10:40:47;;;;;;;20.55;16.27;;;;;;;;;;5074959;28;20160;-81
2021/09/13 10:43:20;;;;;;;17.33;13.57;;;;;;;;;;5074206;28;20108;-78
2021/09/13 10:45:48;;;;;;;16.25;13.00;;;;;;;;;;5073897;28;20021;-76
2021/09/13 10:48:18;;;;;;;15.18;12.43;;;;;;;;;;5073836;28;20150;-78
2021/09/13 10:50:46;;;;;;;13.88;12.45;;;;;;;;;;5076845;28;20059;-79
2021/09/13 10:53:32;;;;;;;13.63;12.13;;;;;;;;;;5072195;28;20017;-77
2021/09/13 10:56:01;;;;;;;19.65;11.85;;;;;;;;;;5057909;28;20056;-78
2021/09/13 10:58:42;;;;;;;15.23;12.02;;;;;;;;;;5074344;28;20028;-79
2021/09/13 11:01:10;;;;;;;19.10;12.20;;;;;;;;;;5074684;28;20028;-79
2021/09/13 11:03:36;;;;;;;18.83;14.38;;;;;;;;;;5073522;28;20123;-79
2021/09/13 11:06:22;;;;;;;12.93;11.73;;;;;;;;;;5074011;28;20036;-77
2021/09/13 11:08:50;;;;;;;18.77;11.95;;;;;;;;;;5059556;28;20067;-77
2021/09/13 11:11:18;;;;;;;11.05;10.05;;;;;;;;;;5074127;28;20029;-77
2021/09/13 11:13:45;;;;;;;14.88;12.48;;;;;;;;;;5053958;28;20021;-80
2021/09/13 11:16:16;;;;;;;15.30;11.55;;;;;;;;;;5054477;28;20028;-79
2021/09/13 11:18:42;;;;;;;12.20;11.13;;;;;;;;;;5052951;28;20491;-77
2021/09/13 11:21:24;;;;;;;12.45;11.32;;;;;;;;;;5054336;28;20112;-78
2021/09/13 11:23:58;;;;;;;16.70;12.05;;;;;;;;;;5053093;28;20029;-78
2021/09/13 11:26:29;;;;;;;14.65;12.63;;;;;;;;;;5054840;28;20090;-76
2021/09/13 11:28:56;;;;;;;13.38;11.98;;;;;;;;;;5053721;28;20067;-76
2021/09/13 11:31:27;;;;;;;13.35;11.95;;;;;;;;;;5055883;28;20086;-78
2021/09/13 11:33:54;;;;;;;12.43;11.07;;;;;;;;;;5072828;28;20021;-78
2021/09/13 11:36:21;;;;;;;12.57;11.20;;;;;;;;;;5053958;28;20032;-78
2021/09/13 11:39:04;;;;;;;12.63;11.10;;;;;;;;;;5062538;28;20036;-76
2021/09/13 11:41:30;;;;;;;13.18;11.43;;;;;;;;;;5073670;28;20029;-76
2021/09/13 11:43:57;;;;;;;11.63;10.55;;;;;;;;;;5072698;28;20031;-77
2021/09/13 11:46:23;;;;;;;11.68;10.52;;;;;;;;;;5073242;28;20024;-84
2021/09/13 11:48:49;;;;;;;9.63;8.73;;;;;;;;;;5072986;28;20064;-80
2021/09/13 11:51:16;;;;;;;12.25;11.13;;;;;;;;;;5072581;28;20031;-81
2021/09/13 11:53:42;;;;;;;11.32;10.20;;;;;;;;;;5073301;28;20039;-82
2021/09/13 11:56:11;;;;;;;15.85;12.48;;;;;;;;;;5072570;28;20139;-82
2021/09/13 11:58:44;;;;;;;13.80;11.43;;;;;;;;;;5073277;28;20078;-83
2021/09/13 12:01:28;;;;;;;13.85;12.20;;;;;;;;;;5073901;28;20041;-82
2021/09/13 12:03:54;;;;;;;12.23;9.90;;;;;;;;;;5073347;28;20031;-85
2021/09/13 12:06:20;;;;;;;11.13;10.05;;;;;;;;;;5073837;28;20024;-83
2021/09/13 12:08:46;;;;;;;11.88;10.45;;;;;;;;;;5073584;28;20036;-85
2021/09/13 12:11:14;;;;;;;11.05;10.00;;;;;;;;;;5073395;28;20098;-84
2021/09/13 12:13:40;;;;;;;11.77;10.68;;;;;;;;;;5073209;28;20143;-84
2021/09/13 12:16:09;;;;;;;14.52;10.73;;;;;;;;;;5072570;28;20040;-83
2021/09/13 12:18:35;;;;;;;12.02;10.80;;;;;;;;;;5072996;28;20478;-84
2021/09/13 12:21:01;;;;;;;15.75;9.15;;;;;;;;;;5073064;28;20036;-86
2021/09/13 12:23:29;;;;;;;11.10;9.98;;;;;;;;;;5073039;28;20060;-84
2021/09/13 12:26:02;;;;;;;11.98;9.93;;;;;;;;;;5072703;28;20066;-86
2021/09/13 12:28:29;;;;;;;10.57;9.57;;;;;;;;;;5073399;28;20025;-86
2021/09/13 12:30:56;;;;;;;10.40;9.40;;;;;;;;;;5076211;28;20035;-86
2021/09/13 12:33:22;;;;;;;11.65;9.40;;;;;;;;;;5076996;28;20020;-81
2021/09/13 12:35:49;;;;;;;18.92;9.82;;;;;;;;;;5076279;28;20029;-85
2021/09/13 12:38:16;;;;;;;11.05;9.40;;;;;;;;;;5076921;28;20024;-84
2021/09/13 12:40:50;;;;;;;9.10;8.40;;;;;;;;;;5076887;28;20035;-84
2021/09/13 12:43:18;;;;;;;9.25;8.38;;;;;;;;;;5076844;28;20024;-88
2021/09/13 12:45:44;;;;;;;11.30;9.50;;;;;;;;;;5077078;28;20085;-87
2021/09/13 12:48:10;;;;;;;15.30;9.93;;;;;;;;;;5076397;28;20067;-82
2021/09/13 12:50:38;;;;;;;10.93;9.70;;;;;;;;;;5077062;28;20370;-84
2021/09/13 12:53:07;;;;;;;8.93;8.05;;;;;;;;;;5076016;28;20132;-85
2021/09/13 12:55:37;;;;;;;9.70;8.90;;;;;;;;;;5076861;28;20122;-88
2021/09/13 12:58:12;;;;;;;9.27;8.45;;;;;;;;;;5076412;28;20035;-87
2021/09/13 13:00:38;;;;;;;10.07;9.13;;;;;;;;;;5076711;28;20055;-85
2021/09/13 13:03:09;;;;;;;10.27;9.25;;;;;;;;;;5076006;28;20028;-86
2021/09/13 13:05:35;;;;;;;11.57;9.27;;;;;;;;;;5075699;28;20204;-86
2021/09/13 13:08:02;;;;;;;12.13;9.15;;;;;;;;;;5076252;28;20059;-86
2021/09/13 13:10:29;;;;;;;10.18;9.23;;;;;;;;;;5075859;28;20378;-82
2021/09/13 13:12:55;;;;;;;14.88;9.50;;;;;;;;;;5075478;28;20363;-87
2021/09/13 13:15:21;;;;;;;12.05;10.70;;;;;;;;;;5075961;28;20028;-84
2021/09/13 13:17:49;;;;;;;10.90;9.98;;;;;;;;;;5075943;28;20108;-84
2021/09/13 13:20:17;;;;;;;9.50;8.68;;;;;;;;;;5076375;28;20478;-84
2021/09/13 13:22:43;;;;;;;9.82;8.82;;;;;;;;;;5075903;28;20021;-86
2021/09/13 13:25:09;;;;;;;31.33;10.18;;;;;;;;;;5075593;28;20028;-85
2021/09/13 13:27:36;;;;;;;9.02;8.23;;;;;;;;;;5075541;28;20394;-83
2021/09/13 13:30:03;;;;;;;9.05;8.23;;;;;;;;;;5075782;28;20427;-89
2021/09/13 13:32:29;;;;;;;8.75;7.93;;;;;;;;;;5075355;28;20378;-90
2021/09/13 13:34:56;;;;;;;10.35;9.35;;;;;;;;;;5076001;28;20085;-92
2021/09/13 13:37:23;;;;;;;10.30;9.30;;;;;;;;;;5076077;28;20025;-94
2021/09/13 13:39:49;;;;;;;11.48;8.35;;;;;;;;;;5081529;28;20039;-90
2021/09/13 13:42:15;;;;;;;9.55;8.75;;;;;;;;;;5076190;28;20078;-94
2021/09/13 13:44:41;;;;;;;9.93;8.93;;;;;;;;;;5075737;28;20021;-88
2021/09/13 13:47:08;;;;;;;10.65;9.60;;;;;;;;;;5075423;28;20373;-87
2021/09/13 13:49:34;;;;;;;17.23;12.10;;;;;;;;;;5075166;28;20024;-87
2021/09/13 13:52:00;;;;;;;12.02;10.05;;;;;;;;;;5075370;28;20025;-87
2021/09/13 13:54:26;;;;;;;8.45;7.72;;;;;;;;;;5074772;28;20066;-88
2021/09/13 13:56:52;;;;;;;9.80;8.90;;;;;;;;;;5076176;28;20024;-87
2021/09/13 13:59:19;;;;;;;11.10;10.10;;;;;;;;;;5073082;28;20037;-85
2021/09/13 14:01:45;;;;;;;10.57;9.57;;;;;;;;;;5074295;28;20035;-86
2021/09/13 14:04:11;;;;;;;9.90;8.90;;;;;;;;;;5074319;28;20048;-87
2021/09/13 14:06:37;;;;;;;9.27;8.38;;;;;;;;;;5075040;28;20462;-84
2021/09/13 14:09:03;;;;;;;7.82;7.05;;;;;;;;;;5074817;28;20121;-89
2021/09/13 14:11:29;;;;;;;9.07;8.18;;;;;;;;;;5076615;28;20347;-80
2021/09/13 14:13:56;;;;;;;8.38;7.65;;;;;;;;;;5077740;28;20028;-90
2021/09/13 14:16:22;;;;;;;9.18;8.10;;;;;;;;;;5077295;28;20032;-90
2021/09/13 14:18:48;;;;;;;7.03;6.05;;;;;;;;;;5077443;28;20466;-80
2021/09/13 14:21:16;;;;;;;6.78;6.18;;;;;;;;;;5077915;28;20033;-78
2021/09/13 14:23:42;;;;;;;7.80;7.03;;;;;;;;;;5076831;28;20024;-81
2021/09/13 14:26:08;;;;;;;6.97;6.38;;;;;;;;;;5076581;28;20051;-80
2021/09/13 14:28:34;;;;;;;9.32;6.90;;;;;;;;;;5078018;28;20024;-82
2021/09/13 14:31:00;;;;;;;7.72;6.68;;;;;;;;;;5076493;28;20046;-79